sensor_id;sensor_type;location;lat;lon;timestamp;P1;durP1;ratioP1;P2;durP2;ratioP2
26082;SDS011;13848;49.018;12.078;2023-04-16T00:00:49;7.97;;;4.97;;
26082;SDS011;13848;49.018;12.078;2023-04-16T00:03:15;6.32;;;4.68;;
26082;SDS011;13848;49.018;12.078;2023-04-16T00:05:41;7.68;;;5.28;;
26082;SDS011;13848;49.018;12.078;2023-04-16T00:08:07;8.07;;;4.80;;
26082;SDS011;13848;49.018;12.078;2023-04-16T00:10:33;6.72;;;4.97;;
26082;SDS011;13848;49.018;12.078;2023-04-16T00:13:00;6.68;;;4.80;;
26082;SDS011;13848;49.018;12.078;2023-04-16T00:15:26;6.90;;;5.47;;
26082;SDS011;13848;49.018;12.078;2023-04-16T00:17:52;7.90;;;5.40;;
26082;SDS011;13848;49.018;12.078;2023-04-16T00:20:18;9.65;;;5.32;;
26082;SDS011;13848;49.018;12.078;2023-04-16T00:22:45;9.38;;;5.72;;
26082;SDS011;13848;49.018;12.078;2023-04-16T00:25:11;9.30;;;5.22;;
26082;SDS011;13848;49.018;12.078;2023-04-16T00:27:38;7.43;;;5.38;;
26082;SDS011;13848;49.018;12.078;2023-04-16T00:30:06;7.55;;;5.32;;
26082;SDS011;13848;49.018;12.078;2023-04-16T00:32:32;8.45;;;5.28;;
26082;SDS011;13848;49.018;12.078;2023-04-16T00:34:58;10.23;;;6.00;;
26082;SDS011;13848;49.018;12.078;2023-04-16T00:37:24;9.27;;;5.60;;
26082;SDS011;13848;49.018;12.078;2023-04-16T00:39:50;8.90;;;5.07;;
26082;SDS011;13848;49.018;12.078;2023-04-16T00:42:16;7.72;;;5.65;;
26082;SDS011;13848;49.018;12.078;2023-04-16T00:44:42;7.90;;;5.35;;
26082;SDS011;13848;49.018;12.078;2023-04-16T00:47:09;7.38;;;5.03;;
26082;SDS011;13848;49.018;12.078;2023-04-16T00:49:36;6.43;;;5.20;;
26082;SDS011;13848;49.018;12.078;2023-04-16T00:52:02;7.80;;;5.35;;
26082;SDS011;13848;49.018;12.078;2023-04-16T00:54:29;7.93;;;5.70;;
26082;SDS011;13848;49.018;12.078;2023-04-16T00:56:56;7.80;;;5.57;;
26082;SDS011;13848;49.018;12.078;2023-04-16T00:59:23;8.80;;;5.72;;
26082;SDS011;13848;49.018;12.078;2023-04-16T01:01:49;8.13;;;5.88;;
26082;SDS011;13848;49.018;12.078;2023-04-16T01:04:16;7.25;;;5.47;;
26082;SDS011;13848;49.018;12.078;2023-04-16T01:06:42;7.38;;;6.10;;
26082;SDS011;13848;49.018;12.078;2023-04-16T01:09:08;7.43;;;5.65;;
26082;SDS011;13848;49.018;12.078;2023-04-16T01:11:35;8.18;;;5.40;;
26082;SDS011;13848;49.018;12.078;2023-04-16T01:14:00;7.50;;;5.22;;
26082;SDS011;13848;49.018;12.078;2023-04-16T01:16:26;7.70;;;5.53;;
26082;SDS011;13848;49.018;12.078;2023-04-16T01:18:52;8.55;;;5.93;;
26082;SDS011;13848;49.018;12.078;2023-04-16T01:21:20;7.57;;;5.32;;
26082;SDS011;13848;49.018;12.078;2023-04-16T01:23:46;8.90;;;5.13;;
26082;SDS011;13848;49.018;12.078;2023-04-16T01:26:12;7.18;;;5.30;;
26082;SDS011;13848;49.018;12.078;2023-04-16T01:28:37;8.43;;;5.55;;
26082;SDS011;13848;49.018;12.078;2023-04-16T01:31:03;6.93;;;5.05;;
26082;SDS011;13848;49.018;12.078;2023-04-16T01:33:29;6.25;;;4.75;;
26082;SDS011;13848;49.018;12.078;2023-04-16T01:35:55;6.95;;;5.03;;
26082;SDS011;13848;49.018;12.078;2023-04-16T01:38:23;6.53;;;4.40;;
26082;SDS011;13848;49.018;12.078;2023-04-16T01:40:49;5.28;;;4.30;;
26082;SDS011;13848;49.018;12.078;2023-04-16T01:43:15;7.35;;;4.85;;
26082;SDS011;13848;49.018;12.078;2023-04-16T01:45:41;6.07;;;4.53;;
26082;SDS011;13848;49.018;12.078;2023-04-16T01:48:07;6.15;;;4.40;;
26082;SDS011;13848;49.018;12.078;2023-04-16T01:50:33;6.25;;;4.20;;
26082;SDS011;13848;49.018;12.078;2023-04-16T01:52:59;6.53;;;4.63;;
26082;SDS011;13848;49.018;12.078;2023-04-16T01:55:27;4.68;;;3.72;;
26082;SDS011;13848;49.018;12.078;2023-04-16T01:57:53;5.90;;;4.00;;
26082;SDS011;13848;49.018;12.078;2023-04-16T02:00:19;6.55;;;4.05;;
26082;SDS011;13848;49.018;12.078;2023-04-16T02:02:45;5.30;;;3.65;;
26082;SDS011;13848;49.018;12.078;2023-04-16T02:05:11;4.55;;;3.63;;
26082;SDS011;13848;49.018;12.078;2023-04-16T02:07:37;5.43;;;3.67;;
26082;SDS011;13848;49.018;12.078;2023-04-16T02:10:03;4.32;;;3.55;;
26082;SDS011;13848;49.018;12.078;2023-04-16T02:12:30;4.63;;;3.47;;
26082;SDS011;13848;49.018;12.078;2023-04-16T02:14:56;3.78;;;3.28;;
26082;SDS011;13848;49.018;12.078;2023-04-16T02:17:22;6.35;;;3.20;;
26082;SDS011;13848;49.018;12.078;2023-04-16T02:19:48;4.30;;;3.40;;
26082;SDS011;13848;49.018;12.078;2023-04-16T02:22:14;4.20;;;2.83;;
26082;SDS011;13848;49.018;12.078;2023-04-16T02:24:40;4.32;;;3.35;;
26082;SDS011;13848;49.018;12.078;2023-04-16T02:27:06;3.35;;;2.85;;
26082;SDS011;13848;49.018;12.078;2023-04-16T02:29:33;4.90;;;3.22;;
26082;SDS011;13848;49.018;12.078;2023-04-16T02:32:00;3.83;;;3.10;;
26082;SDS011;13848;49.018;12.078;2023-04-16T02:34:26;3.22;;;2.78;;
26082;SDS011;13848;49.018;12.078;2023-04-16T02:36:52;3.28;;;2.67;;
26082;SDS011;13848;49.018;12.078;2023-04-16T02:39:18;3.88;;;2.95;;
26082;SDS011;13848;49.018;12.078;2023-04-16T02:41:44;3.35;;;2.90;;
26082;SDS011;13848;49.018;12.078;2023-04-16T02:44:10;3.78;;;2.78;;
26082;SDS011;13848;49.018;12.078;2023-04-16T02:46:37;3.47;;;2.55;;
26082;SDS011;13848;49.018;12.078;2023-04-16T02:49:03;4.40;;;2.97;;
26082;SDS011;13848;49.018;12.078;2023-04-16T02:51:29;2.90;;;2.55;;
26082;SDS011;13848;49.018;12.078;2023-04-16T02:53:55;3.22;;;2.58;;
26082;SDS011;13848;49.018;12.078;2023-04-16T02:56:21;4.45;;;2.22;;
26082;SDS011;13848;49.018;12.078;2023-04-16T02:58:47;3.45;;;2.78;;
26082;SDS011;13848;49.018;12.078;2023-04-16T03:01:13;2.67;;;2.38;;
26082;SDS011;13848;49.018;12.078;2023-04-16T03:03:40;3.65;;;2.58;;
26082;SDS011;13848;49.018;12.078;2023-04-16T03:06:06;2.72;;;2.40;;
26082;SDS011;13848;49.018;12.078;2023-04-16T03:08:32;2.85;;;2.40;;
26082;SDS011;13848;49.018;12.078;2023-04-16T03:10:58;2.78;;;2.47;;
26082;SDS011;13848;49.018;12.078;2023-04-16T03:13:23;3.28;;;2.72;;
26082;SDS011;13848;49.018;12.078;2023-04-16T03:15:49;2.63;;;2.17;;
26082;SDS011;13848;49.018;12.078;2023-04-16T03:18:15;3.10;;;2.50;;
26082;SDS011;13848;49.018;12.078;2023-04-16T03:20:43;2.47;;;2.25;;
26082;SDS011;13848;49.018;12.078;2023-04-16T03:23:08;3.70;;;2.40;;
26082;SDS011;13848;49.018;12.078;2023-04-16T03:25:34;2.53;;;2.28;;
26082;SDS011;13848;49.018;12.078;2023-04-16T03:28:00;2.85;;;2.35;;
26082;SDS011;13848;49.018;12.078;2023-04-16T03:30:26;2.80;;;2.40;;
26082;SDS011;13848;49.018;12.078;2023-04-16T03:32:52;2.65;;;2.40;;
26082;SDS011;13848;49.018;12.078;2023-04-16T03:35:18;2.92;;;2.45;;
26082;SDS011;13848;49.018;12.078;2023-04-16T03:37:45;3.58;;;2.28;;
26082;SDS011;13848;49.018;12.078;2023-04-16T03:40:12;2.75;;;2.28;;
26082;SDS011;13848;49.018;12.078;2023-04-16T03:42:38;3.28;;;2.45;;
26082;SDS011;13848;49.018;12.078;2023-04-16T03:45:04;2.90;;;2.53;;
26082;SDS011;13848;49.018;12.078;2023-04-16T03:47:31;2.38;;;2.17;;
26082;SDS011;13848;49.018;12.078;2023-04-16T03:49:57;2.50;;;2.30;;
26082;SDS011;13848;49.018;12.078;2023-04-16T03:52:23;3.90;;;2.50;;
26082;SDS011;13848;49.018;12.078;2023-04-16T03:54:50;4.78;;;2.40;;
26082;SDS011;13848;49.018;12.078;2023-04-16T03:57:16;4.20;;;2.22;;
26082;SDS011;13848;49.018;12.078;2023-04-16T03:59:42;2.83;;;2.35;;
26082;SDS011;13848;49.018;12.078;2023-04-16T04:02:08;3.67;;;2.60;;
26082;SDS011;13848;49.018;12.078;2023-04-16T04:04:34;2.55;;;2.13;;
26082;SDS011;13848;49.018;12.078;2023-04-16T04:07:00;3.33;;;2.30;;
26082;SDS011;13848;49.018;12.078;2023-04-16T04:09:25;2.90;;;2.40;;
26082;SDS011;13848;49.018;12.078;2023-04-16T04:11:53;3.72;;;2.45;;
26082;SDS011;13848;49.018;12.078;2023-04-16T04:14:19;3.17;;;2.55;;
26082;SDS011;13848;49.018;12.078;2023-04-16T04:16:45;2.97;;;2.55;;
26082;SDS011;13848;49.018;12.078;2023-04-16T04:19:10;5.82;;;2.90;;
26082;SDS011;13848;49.018;12.078;2023-04-16T04:21:37;2.85;;;2.25;;
26082;SDS011;13848;49.018;12.078;2023-04-16T04:24:03;3.03;;;2.50;;
26082;SDS011;13848;49.018;12.078;2023-04-16T04:26:29;3.67;;;2.60;;
26082;SDS011;13848;49.018;12.078;2023-04-16T04:28:56;2.47;;;2.28;;
26082;SDS011;13848;49.018;12.078;2023-04-16T04:31:22;2.60;;;2.30;;
26082;SDS011;13848;49.018;12.078;2023-04-16T04:33:48;3.53;;;2.45;;
26082;SDS011;13848;49.018;12.078;2023-04-16T04:36:14;5.03;;;3.33;;
26082;SDS011;13848;49.018;12.078;2023-04-16T04:38:40;2.60;;;2.20;;
26082;SDS011;13848;49.018;12.078;2023-04-16T04:41:06;3.13;;;2.42;;
26082;SDS011;13848;49.018;12.078;2023-04-16T04:43:31;2.50;;;2.20;;
26082;SDS011;13848;49.018;12.078;2023-04-16T04:45:59;2.90;;;2.30;;
26082;SDS011;13848;49.018;12.078;2023-04-16T04:48:25;3.10;;;2.50;;
26082;SDS011;13848;49.018;12.078;2023-04-16T04:50:51;2.40;;;2.13;;
26082;SDS011;13848;49.018;12.078;2023-04-16T04:53:16;2.80;;;2.33;;
26082;SDS011;13848;49.018;12.078;2023-04-16T04:55:42;2.90;;;2.40;;
26082;SDS011;13848;49.018;12.078;2023-04-16T04:58:08;2.70;;;2.30;;
26082;SDS011;13848;49.018;12.078;2023-04-16T05:00:34;2.22;;;1.92;;
26082;SDS011;13848;49.018;12.078;2023-04-16T05:03:03;2.45;;;2.10;;
26082;SDS011;13848;49.018;12.078;2023-04-16T05:05:30;2.95;;;2.53;;
26082;SDS011;13848;49.018;12.078;2023-04-16T05:07:56;2.85;;;2.30;;
26082;SDS011;13848;49.018;12.078;2023-04-16T05:10:22;2.50;;;2.20;;
26082;SDS011;13848;49.018;12.078;2023-04-16T05:12:48;3.60;;;2.40;;
26082;SDS011;13848;49.018;12.078;2023-04-16T05:15:14;4.07;;;2.38;;
26082;SDS011;13848;49.018;12.078;2023-04-16T05:17:40;2.65;;;2.40;;
26082;SDS011;13848;49.018;12.078;2023-04-16T05:20:08;2.72;;;2.22;;
26082;SDS011;13848;49.018;12.078;2023-04-16T05:22:34;2.95;;;2.28;;
26082;SDS011;13848;49.018;12.078;2023-04-16T05:25:00;4.20;;;2.58;;
26082;SDS011;13848;49.018;12.078;2023-04-16T05:27:26;4.95;;;2.60;;
26082;SDS011;13848;49.018;12.078;2023-04-16T05:29:52;3.88;;;2.47;;
26082;SDS011;13848;49.018;12.078;2023-04-16T05:32:18;3.50;;;2.50;;
26082;SDS011;13848;49.018;12.078;2023-04-16T05:34:44;3.00;;;2.47;;
26082;SDS011;13848;49.018;12.078;2023-04-16T05:37:11;2.70;;;2.17;;
26082;SDS011;13848;49.018;12.078;2023-04-16T05:39:37;3.00;;;2.40;;
26082;SDS011;13848;49.018;12.078;2023-04-16T05:42:03;2.90;;;2.20;;
26082;SDS011;13848;49.018;12.078;2023-04-16T05:44:29;2.50;;;2.20;;
26082;SDS011;13848;49.018;12.078;2023-04-16T05:46:55;2.40;;;1.90;;
26082;SDS011;13848;49.018;12.078;2023-04-16T05:49:21;4.55;;;2.40;;
26082;SDS011;13848;49.018;12.078;2023-04-16T05:51:47;2.50;;;2.13;;
26082;SDS011;13848;49.018;12.078;2023-04-16T05:54:14;2.75;;;1.98;;
26082;SDS011;13848;49.018;12.078;2023-04-16T05:56:40;2.58;;;2.03;;
26082;SDS011;13848;49.018;12.078;2023-04-16T05:59:06;2.33;;;2.13;;
26082;SDS011;13848;49.018;12.078;2023-04-16T06:01:32;2.97;;;2.30;;
26082;SDS011;13848;49.018;12.078;2023-04-16T06:03:58;2.80;;;2.03;;
26082;SDS011;13848;49.018;12.078;2023-04-16T06:06:24;3.10;;;2.20;;
26082;SDS011;13848;49.018;12.078;2023-04-16T06:08:50;3.90;;;2.80;;
26082;SDS011;13848;49.018;12.078;2023-04-16T06:11:17;2.80;;;2.30;;
26082;SDS011;13848;49.018;12.078;2023-04-16T06:13:43;4.13;;;2.30;;
26082;SDS011;13848;49.018;12.078;2023-04-16T06:16:09;2.63;;;2.20;;
26082;SDS011;13848;49.018;12.078;2023-04-16T06:18:35;2.70;;;1.95;;
26082;SDS011;13848;49.018;12.078;2023-04-16T06:21:02;2.88;;;2.50;;
26082;SDS011;13848;49.018;12.078;2023-04-16T06:23:28;2.38;;;2.17;;
26082;SDS011;13848;49.018;12.078;2023-04-16T06:25:54;3.60;;;2.50;;
26082;SDS011;13848;49.018;12.078;2023-04-16T06:28:22;3.00;;;2.47;;
26082;SDS011;13848;49.018;12.078;2023-04-16T06:30:48;2.88;;;2.40;;
26082;SDS011;13848;49.018;12.078;2023-04-16T06:33:14;3.25;;;2.40;;
26082;SDS011;13848;49.018;12.078;2023-04-16T06:35:39;3.28;;;2.45;;
26082;SDS011;13848;49.018;12.078;2023-04-16T06:38:05;2.88;;;2.50;;
26082;SDS011;13848;49.018;12.078;2023-04-16T06:40:31;5.22;;;2.78;;
26082;SDS011;13848;49.018;12.078;2023-04-16T06:42:57;3.20;;;2.60;;
26082;SDS011;13848;49.018;12.078;2023-04-16T06:45:25;3.47;;;3.08;;
26082;SDS011;13848;49.018;12.078;2023-04-16T06:47:51;3.65;;;2.80;;
26082;SDS011;13848;49.018;12.078;2023-04-16T06:50:17;2.70;;;2.50;;
26082;SDS011;13848;49.018;12.078;2023-04-16T06:52:43;2.45;;;2.20;;
26082;SDS011;13848;49.018;12.078;2023-04-16T06:55:09;4.13;;;3.00;;
26082;SDS011;13848;49.018;12.078;2023-04-16T06:57:35;2.30;;;2.10;;
26082;SDS011;13848;49.018;12.078;2023-04-16T07:00:01;2.08;;;1.88;;
26082;SDS011;13848;49.018;12.078;2023-04-16T07:02:29;2.78;;;2.08;;
26082;SDS011;13848;49.018;12.078;2023-04-16T07:04:55;2.58;;;1.85;;
26082;SDS011;13848;49.018;12.078;2023-04-16T07:07:21;2.00;;;1.80;;
26082;SDS011;13848;49.018;12.078;2023-04-16T07:09:47;2.08;;;1.70;;
26082;SDS011;13848;49.018;12.078;2023-04-16T07:12:13;2.83;;;1.98;;
26082;SDS011;13848;49.018;12.078;2023-04-16T07:14:39;1.95;;;1.75;;
26082;SDS011;13848;49.018;12.078;2023-04-16T07:17:05;2.40;;;2.20;;
26082;SDS011;13848;49.018;12.078;2023-04-16T07:19:32;2.28;;;2.08;;
26082;SDS011;13848;49.018;12.078;2023-04-16T07:21:58;2.22;;;2.00;;
26082;SDS011;13848;49.018;12.078;2023-04-16T07:24:24;2.10;;;1.77;;
26082;SDS011;13848;49.018;12.078;2023-04-16T07:26:50;2.63;;;1.83;;
26082;SDS011;13848;49.018;12.078;2023-04-16T07:29:17;2.50;;;1.92;;
26082;SDS011;13848;49.018;12.078;2023-04-16T07:31:43;2.55;;;1.92;;
26082;SDS011;13848;49.018;12.078;2023-04-16T07:34:09;2.47;;;1.85;;
26082;SDS011;13848;49.018;12.078;2023-04-16T07:36:36;2.38;;;2.03;;
26082;SDS011;13848;49.018;12.078;2023-04-16T07:39:03;2.17;;;1.85;;
26082;SDS011;13848;49.018;12.078;2023-04-16T07:41:29;2.70;;;1.90;;
26082;SDS011;13848;49.018;12.078;2023-04-16T07:43:55;2.00;;;1.67;;
26082;SDS011;13848;49.018;12.078;2023-04-16T07:46:21;1.73;;;1.42;;
26082;SDS011;13848;49.018;12.078;2023-04-16T07:48:47;2.03;;;1.70;;
26082;SDS011;13848;49.018;12.078;2023-04-16T07:51:13;2.88;;;1.70;;
26082;SDS011;13848;49.018;12.078;2023-04-16T07:53:40;2.53;;;1.70;;
26082;SDS011;13848;49.018;12.078;2023-04-16T07:56:06;3.47;;;2.05;;
26082;SDS011;13848;49.018;12.078;2023-04-16T07:58:32;2.75;;;1.80;;
26082;SDS011;13848;49.018;12.078;2023-04-16T08:00:58;3.78;;;1.70;;
26082;SDS011;13848;49.018;12.078;2023-04-16T08:03:24;1.92;;;1.77;;
26082;SDS011;13848;49.018;12.078;2023-04-16T08:05:50;3.25;;;2.30;;
26082;SDS011;13848;49.018;12.078;2023-04-16T08:08:16;2.40;;;2.08;;
26082;SDS011;13848;49.018;12.078;2023-04-16T08:10:44;2.20;;;1.90;;
26082;SDS011;13848;49.018;12.078;2023-04-16T08:13:10;2.53;;;1.75;;
26082;SDS011;13848;49.018;12.078;2023-04-16T08:15:36;4.97;;;1.58;;
26082;SDS011;13848;49.018;12.078;2023-04-16T08:18:01;2.22;;;1.65;;
26082;SDS011;13848;49.018;12.078;2023-04-16T08:20:27;2.17;;;1.50;;
26082;SDS011;13848;49.018;12.078;2023-04-16T08:22:53;1.98;;;1.60;;
26082;SDS011;13848;49.018;12.078;2023-04-16T08:25:19;2.28;;;1.65;;
26082;SDS011;13848;49.018;12.078;2023-04-16T08:27:47;1.50;;;1.40;;
26082;SDS011;13848;49.018;12.078;2023-04-16T08:30:13;3.28;;;2.20;;
26082;SDS011;13848;49.018;12.078;2023-04-16T08:32:38;2.05;;;1.80;;
26082;SDS011;13848;49.018;12.078;2023-04-16T08:35:05;3.78;;;2.58;;
26082;SDS011;13848;49.018;12.078;2023-04-16T08:37:31;2.38;;;1.75;;
26082;SDS011;13848;49.018;12.078;2023-04-16T08:39:57;2.42;;;1.92;;
26082;SDS011;13848;49.018;12.078;2023-04-16T08:42:25;2.17;;;1.92;;
26082;SDS011;13848;49.018;12.078;2023-04-16T08:45:06;1.95;;;1.63;;
26082;SDS011;13848;49.018;12.078;2023-04-16T08:47:33;2.85;;;2.15;;
26082;SDS011;13848;49.018;12.078;2023-04-16T08:50:01;3.58;;;2.00;;
26082;SDS011;13848;49.018;12.078;2023-04-16T08:52:28;1.85;;;1.63;;
26082;SDS011;13848;49.018;12.078;2023-04-16T08:54:56;3.33;;;1.70;;
26082;SDS011;13848;49.018;12.078;2023-04-16T08:57:29;2.00;;;1.70;;
26082;SDS011;13848;49.018;12.078;2023-04-16T08:59:59;1.83;;;1.55;;
26082;SDS011;13848;49.018;12.078;2023-04-16T09:02:25;2.22;;;1.60;;
26082;SDS011;13848;49.018;12.078;2023-04-16T09:04:51;1.90;;;1.70;;
26082;SDS011;13848;49.018;12.078;2023-04-16T09:07:18;2.22;;;1.80;;
26082;SDS011;13848;49.018;12.078;2023-04-16T09:09:46;2.40;;;1.70;;
26082;SDS011;13848;49.018;12.078;2023-04-16T09:12:13;4.10;;;1.48;;
26082;SDS011;13848;49.018;12.078;2023-04-16T09:14:39;2.67;;;1.50;;
26082;SDS011;13848;49.018;12.078;2023-04-16T09:17:07;1.50;;;1.30;;
26082;SDS011;13848;49.018;12.078;2023-04-16T09:19:34;4.03;;;1.30;;
26082;SDS011;13848;49.018;12.078;2023-04-16T09:22:00;1.45;;;1.30;;
26082;SDS011;13848;49.018;12.078;2023-04-16T09:24:26;1.20;;;1.10;;
26082;SDS011;13848;49.018;12.078;2023-04-16T09:26:53;1.48;;;1.38;;
26082;SDS011;13848;49.018;12.078;2023-04-16T09:29:31;1.60;;;1.50;;
26082;SDS011;13848;49.018;12.078;2023-04-16T09:32:00;1.13;;;0.98;;
26082;SDS011;13848;49.018;12.078;2023-04-16T09:34:28;1.10;;;1.00;;
26082;SDS011;13848;49.018;12.078;2023-04-16T09:36:54;1.85;;;1.20;;
26082;SDS011;13848;49.018;12.078;2023-04-16T09:39:21;1.50;;;1.38;;
26082;SDS011;13848;49.018;12.078;2023-04-16T09:41:47;1.20;;;1.10;;
26082;SDS011;13848;49.018;12.078;2023-04-16T09:44:13;1.35;;;1.20;;
26082;SDS011;13848;49.018;12.078;2023-04-16T09:46:40;1.95;;;1.70;;
26082;SDS011;13848;49.018;12.078;2023-04-16T09:49:07;1.85;;;1.50;;
26082;SDS011;13848;49.018;12.078;2023-04-16T09:51:36;1.45;;;1.35;;
26082;SDS011;13848;49.018;12.078;2023-04-16T09:54:03;1.15;;;1.05;;
26082;SDS011;13848;49.018;12.078;2023-04-16T09:56:29;1.35;;;1.15;;
26082;SDS011;13848;49.018;12.078;2023-04-16T09:58:55;2.08;;;1.30;;
26082;SDS011;13848;49.018;12.078;2023-04-16T10:01:22;1.92;;;1.50;;
26082;SDS011;13848;49.018;12.078;2023-04-16T10:03:48;1.90;;;1.70;;
26082;SDS011;13848;49.018;12.078;2023-04-16T10:06:14;19.02;;;8.93;;
26082;SDS011;13848;49.018;12.078;2023-04-16T10:08:46;5.70;;;3.35;;
26082;SDS011;13848;49.018;12.078;2023-04-16T10:11:13;23.65;;;14.68;;
26082;SDS011;13848;49.018;12.078;2023-04-16T10:13:40;6.30;;;3.05;;
26082;SDS011;13848;49.018;12.078;2023-04-16T10:16:06;4.38;;;2.65;;
26082;SDS011;13848;49.018;12.078;2023-04-16T10:18:33;3.60;;;1.42;;
26082;SDS011;13848;49.018;12.078;2023-04-16T10:21:00;1.40;;;1.30;;
26082;SDS011;13848;49.018;12.078;2023-04-16T10:23:27;2.10;;;1.50;;
26082;SDS011;13848;49.018;12.078;2023-04-16T10:25:55;1.70;;;1.33;;
26082;SDS011;13848;49.018;12.078;2023-04-16T10:28:23;1.52;;;1.25;;
26082;SDS011;13848;49.018;12.078;2023-04-16T10:30:50;1.80;;;1.60;;
26082;SDS011;13848;49.018;12.078;2023-04-16T10:33:20;1.98;;;1.60;;
26082;SDS011;13848;49.018;12.078;2023-04-16T10:35:48;1.30;;;1.20;;
26082;SDS011;13848;49.018;12.078;2023-04-16T10:38:21;1.45;;;1.30;;
26082;SDS011;13848;49.018;12.078;2023-04-16T10:40:49;1.88;;;1.40;;
26082;SDS011;13848;49.018;12.078;2023-04-16T10:43:17;1.90;;;1.60;;
26082;SDS011;13848;49.018;12.078;2023-04-16T10:45:43;1.60;;;1.40;;
26082;SDS011;13848;49.018;12.078;2023-04-16T10:48:09;1.80;;;1.70;;
26082;SDS011;13848;49.018;12.078;2023-04-16T10:50:35;1.48;;;1.38;;
26082;SDS011;13848;49.018;12.078;2023-04-16T10:53:17;1.30;;;1.20;;
26082;SDS011;13848;49.018;12.078;2023-04-16T10:55:55;1.63;;;1.45;;
26082;SDS011;13848;49.018;12.078;2023-04-16T10:58:29;1.52;;;1.42;;
26082;SDS011;13848;49.018;12.078;2023-04-16T11:00:58;2.03;;;1.70;;
26082;SDS011;13848;49.018;12.078;2023-04-16T11:03:24;2.47;;;1.80;;
26082;SDS011;13848;49.018;12.078;2023-04-16T11:05:50;1.75;;;1.40;;
26082;SDS011;13848;49.018;12.078;2023-04-16T11:08:16;2.40;;;1.60;;
26082;SDS011;13848;49.018;12.078;2023-04-16T11:10:42;2.22;;;1.50;;
26082;SDS011;13848;49.018;12.078;2023-04-16T11:13:08;1.83;;;1.30;;
26082;SDS011;13848;49.018;12.078;2023-04-16T11:15:38;1.50;;;1.27;;
26082;SDS011;13848;49.018;12.078;2023-04-16T11:18:04;1.75;;;1.45;;
26082;SDS011;13848;49.018;12.078;2023-04-16T11:20:30;1.60;;;1.50;;
26082;SDS011;13848;49.018;12.078;2023-04-16T11:22:57;3.17;;;1.40;;
26082;SDS011;13848;49.018;12.078;2023-04-16T11:25:23;3.03;;;1.52;;
26082;SDS011;13848;49.018;12.078;2023-04-16T11:27:51;1.75;;;1.40;;
26082;SDS011;13848;49.018;12.078;2023-04-16T11:30:18;1.50;;;1.40;;
26082;SDS011;13848;49.018;12.078;2023-04-16T11:32:54;1.95;;;1.67;;
26082;SDS011;13848;49.018;12.078;2023-04-16T11:35:20;3.20;;;1.92;;
26082;SDS011;13848;49.018;12.078;2023-04-16T11:37:47;1.80;;;1.52;;
26082;SDS011;13848;49.018;12.078;2023-04-16T11:40:13;1.80;;;1.60;;
26082;SDS011;13848;49.018;12.078;2023-04-16T11:42:39;2.10;;;1.48;;
26082;SDS011;13848;49.018;12.078;2023-04-16T11:45:06;3.40;;;1.45;;
26082;SDS011;13848;49.018;12.078;2023-04-16T11:47:41;1.73;;;1.40;;
26082;SDS011;13848;49.018;12.078;2023-04-16T11:50:19;1.70;;;1.30;;
26082;SDS011;13848;49.018;12.078;2023-04-16T11:52:46;2.97;;;1.80;;
26082;SDS011;13848;49.018;12.078;2023-04-16T11:55:12;1.95;;;1.65;;
26082;SDS011;13848;49.018;12.078;2023-04-16T11:57:39;1.88;;;1.38;;
26082;SDS011;13848;49.018;12.078;2023-04-16T12:00:05;1.50;;;1.35;;
26082;SDS011;13848;49.018;12.078;2023-04-16T12:02:38;1.48;;;1.38;;
26082;SDS011;13848;49.018;12.078;2023-04-16T12:05:24;1.90;;;1.50;;
26082;SDS011;13848;49.018;12.078;2023-04-16T12:07:52;1.73;;;1.33;;
26082;SDS011;13848;49.018;12.078;2023-04-16T12:10:18;2.10;;;1.48;;
26082;SDS011;13848;49.018;12.078;2023-04-16T12:12:44;1.65;;;1.30;;
26082;SDS011;13848;49.018;12.078;2023-04-16T12:15:10;2.10;;;1.50;;
26082;SDS011;13848;49.018;12.078;2023-04-16T12:17:37;3.00;;;1.88;;
26082;SDS011;13848;49.018;12.078;2023-04-16T12:20:03;2.28;;;1.70;;
26082;SDS011;13848;49.018;12.078;2023-04-16T12:22:35;4.38;;;1.85;;
26082;SDS011;13848;49.018;12.078;2023-04-16T12:25:02;1.98;;;1.40;;
26082;SDS011;13848;49.018;12.078;2023-04-16T12:27:42;3.05;;;1.83;;
26082;SDS011;13848;49.018;12.078;2023-04-16T12:30:09;2.45;;;1.60;;
26082;SDS011;13848;49.018;12.078;2023-04-16T12:32:36;1.88;;;1.52;;
26082;SDS011;13848;49.018;12.078;2023-04-16T12:35:02;1.85;;;1.67;;
26082;SDS011;13848;49.018;12.078;2023-04-16T12:37:28;2.13;;;1.50;;
26082;SDS011;13848;49.018;12.078;2023-04-16T12:39:55;3.45;;;1.48;;
26082;SDS011;13848;49.018;12.078;2023-04-16T12:42:22;1.60;;;1.20;;
26082;SDS011;13848;49.018;12.078;2023-04-16T12:44:48;2.47;;;1.50;;
26082;SDS011;13848;49.018;12.078;2023-04-16T12:47:13;2.90;;;1.48;;
26082;SDS011;13848;49.018;12.078;2023-04-16T12:49:39;2.20;;;1.70;;
26082;SDS011;13848;49.018;12.078;2023-04-16T12:52:05;2.92;;;2.15;;
26082;SDS011;13848;49.018;12.078;2023-04-16T12:54:31;2.30;;;1.95;;
26082;SDS011;13848;49.018;12.078;2023-04-16T12:56:59;2.28;;;1.85;;
26082;SDS011;13848;49.018;12.078;2023-04-16T12:59:25;2.53;;;1.98;;
26082;SDS011;13848;49.018;12.078;2023-04-16T13:01:51;3.75;;;1.73;;
26082;SDS011;13848;49.018;12.078;2023-04-16T13:04:16;2.25;;;1.88;;
26082;SDS011;13848;49.018;12.078;2023-04-16T13:06:43;3.40;;;2.33;;
26082;SDS011;13848;49.018;12.078;2023-04-16T13:09:09;2.28;;;1.80;;
26082;SDS011;13848;49.018;12.078;2023-04-16T13:11:35;2.80;;;1.73;;
26082;SDS011;13848;49.018;12.078;2023-04-16T13:14:03;2.58;;;2.20;;
26082;SDS011;13848;49.018;12.078;2023-04-16T13:16:29;2.42;;;1.67;;
26082;SDS011;13848;49.018;12.078;2023-04-16T13:18:55;2.00;;;1.80;;
26082;SDS011;13848;49.018;12.078;2023-04-16T13:21:21;2.40;;;1.60;;
26082;SDS011;13848;49.018;12.078;2023-04-16T13:23:47;2.30;;;1.48;;
26082;SDS011;13848;49.018;12.078;2023-04-16T13:26:13;1.40;;;1.30;;
26082;SDS011;13848;49.018;12.078;2023-04-16T13:28:38;2.63;;;1.58;;
26082;SDS011;13848;49.018;12.078;2023-04-16T13:31:06;1.60;;;1.40;;
26082;SDS011;13848;49.018;12.078;2023-04-16T13:33:32;2.78;;;1.15;;
26082;SDS011;13848;49.018;12.078;2023-04-16T13:35:58;1.20;;;1.10;;
26082;SDS011;13848;49.018;12.078;2023-04-16T13:38:24;2.45;;;1.33;;
26082;SDS011;13848;49.018;12.078;2023-04-16T13:40:50;2.67;;;1.42;;
26082;SDS011;13848;49.018;12.078;2023-04-16T13:43:16;1.13;;;1.02;;
26082;SDS011;13848;49.018;12.078;2023-04-16T13:45:41;1.20;;;1.10;;
26082;SDS011;13848;49.018;12.078;2023-04-16T13:48:09;1.77;;;1.52;;
26082;SDS011;13848;49.018;12.078;2023-04-16T13:50:35;2.63;;;2.08;;
26082;SDS011;13848;49.018;12.078;2023-04-16T13:53:01;2.00;;;1.52;;
26082;SDS011;13848;49.018;12.078;2023-04-16T13:55:28;2.17;;;1.52;;
26082;SDS011;13848;49.018;12.078;2023-04-16T13:57:55;1.92;;;1.70;;
26082;SDS011;13848;49.018;12.078;2023-04-16T14:00:21;1.92;;;1.60;;
26082;SDS011;13848;49.018;12.078;2023-04-16T14:02:48;1.63;;;1.52;;
26082;SDS011;13848;49.018;12.078;2023-04-16T14:05:15;2.05;;;1.60;;
26082;SDS011;13848;49.018;12.078;2023-04-16T14:07:41;2.90;;;2.20;;
26082;SDS011;13848;49.018;12.078;2023-04-16T14:10:07;2.22;;;2.03;;
26082;SDS011;13848;49.018;12.078;2023-04-16T14:12:34;2.22;;;1.83;;
26082;SDS011;13848;49.018;12.078;2023-04-16T14:15:00;2.80;;;2.10;;
26082;SDS011;13848;49.018;12.078;2023-04-16T14:17:26;1.88;;;1.50;;
26082;SDS011;13848;49.018;12.078;2023-04-16T14:19:52;2.13;;;1.58;;
26082;SDS011;13848;49.018;12.078;2023-04-16T14:22:19;1.85;;;1.50;;
26082;SDS011;13848;49.018;12.078;2023-04-16T14:24:45;1.85;;;1.20;;
26082;SDS011;13848;49.018;12.078;2023-04-16T14:27:11;1.42;;;1.15;;
26082;SDS011;13848;49.018;12.078;2023-04-16T14:29:37;1.25;;;1.15;;